createdAt,value
2022-11-05T00:02:52.746Z,11.50
2022-11-05T00:06:52.701Z,11.60
2022-11-05T00:10:36.046Z,11.60
2022-11-05T00:14:36.103Z,11.70
2022-11-05T00:18:17.982Z,11.70
2022-11-05T00:22:19.429Z,11.70
2022-11-05T00:26:02.594Z,11.70
2022-11-05T00:29:44.286Z,11.70
2022-11-05T00:33:27.337Z,11.70
2022-11-05T00:37:09.073Z,11.70
2022-11-05T00:40:52.885Z,11.70
2022-11-05T00:44:53.221Z,11.70
2022-11-05T00:48:53.651Z,11.70
2022-11-05T00:52:53.878Z,11.70
2022-11-05T00:56:35.565Z,11.60
2022-11-05T01:00:17.568Z,11.50
2022-11-05T01:03:59.277Z,11.50
2022-11-05T01:07:41.009Z,11.50
2022-11-05T01:11:36.967Z,11.50
2022-11-05T01:15:19.340Z,11.40
2022-11-05T01:19:01.840Z,11.40
2022-11-05T01:22:45.829Z,11.50
2022-11-05T01:26:27.597Z,11.50
2022-11-05T01:30:09.840Z,11.50
2022-11-05T01:33:52.761Z,11.50
2022-11-05T01:37:35.015Z,11.50
2022-11-05T01:41:16.960Z,11.50
2022-11-05T01:45:23.077Z,11.50
2022-11-05T01:49:28.308Z,11.50
2022-11-05T01:53:14.233Z,11.50
2022-11-05T01:57:03.833Z,11.50
2022-11-05T02:00:45.509Z,11.50
2022-11-05T02:04:41.984Z,11.50
2022-11-05T02:08:46.463Z,11.50
2022-11-05T02:12:29.213Z,11.40
2022-11-05T02:16:22.862Z,11.40
2022-11-05T02:20:29.048Z,11.40
2022-11-05T02:24:31.234Z,11.40
2022-11-05T02:28:23.062Z,11.40
2022-11-05T02:32:25.653Z,11.40
2022-11-05T02:36:14.967Z,11.30
2022-11-05T02:40:02.923Z,11.30
2022-11-05T02:43:58.555Z,11.40
2022-11-05T02:47:45.643Z,11.40
2022-11-05T02:51:54.520Z,11.40
2022-11-05T02:55:53.989Z,11.40
2022-11-05T02:59:35.660Z,11.40
2022-11-05T03:03:24.797Z,11.50
2022-11-05T03:07:22.345Z,11.50
2022-11-05T03:11:17.952Z,11.50
2022-11-05T03:15:08.489Z,11.50
2022-11-05T03:19:10.272Z,11.50
2022-11-05T03:23:15.728Z,11.50
2022-11-05T03:27:05.824Z,11.50
2022-11-05T03:30:47.530Z,11.50
2022-11-05T03:34:36.946Z,11.50
2022-11-05T03:38:27.597Z,11.60
2022-11-05T03:42:11.717Z,11.60
2022-11-05T03:45:57.598Z,11.60
2022-11-05T03:49:41.042Z,11.60
2022-11-05T03:53:29.467Z,11.60
2022-11-05T03:57:16.262Z,11.70
2022-11-05T04:01:00.192Z,11.70
2022-11-05T04:04:41.966Z,11.70
2022-11-05T04:08:42.084Z,11.70
2022-11-05T04:12:43.379Z,11.70
2022-11-05T04:16:43.717Z,11.70
2022-11-05T04:20:44.376Z,11.60
2022-11-05T04:24:26.045Z,11.60
2022-11-05T04:28:07.718Z,11.60
2022-11-05T04:31:49.840Z,11.60
2022-11-05T04:35:39.240Z,11.60
2022-11-05T04:39:21.032Z,11.60
2022-11-05T04:43:04.935Z,11.60
2022-11-05T04:46:46.623Z,11.60
2022-11-05T04:50:28.346Z,11.60
2022-11-05T04:54:10.233Z,11.60
2022-11-05T04:57:52.274Z,11.60
2022-11-05T05:01:35.168Z,11.60
2022-11-05T05:05:17.024Z,11.70
2022-11-05T05:08:58.697Z,11.70
2022-11-05T05:12:41.469Z,11.70
2022-11-05T05:16:25.115Z,11.70
2022-11-05T05:20:25.607Z,11.70
2022-11-05T05:24:14.702Z,11.70
2022-11-05T05:27:59.425Z,11.70
2022-11-05T05:31:41.661Z,11.80
2022-11-05T05:35:23.334Z,11.70
2022-11-05T05:39:06.702Z,11.70
2022-11-05T05:42:52.838Z,11.70
2022-11-05T05:46:34.552Z,11.70
2022-11-05T05:50:16.315Z,11.80
2022-11-05T05:53:58.543Z,11.70
2022-11-05T05:57:40.224Z,11.80
2022-11-05T06:01:22.044Z,11.80
2022-11-05T06:05:03.897Z,11.90
2022-11-05T06:08:45.592Z,11.90
2022-11-05T06:12:29.517Z,11.90
2022-11-05T06:16:11.396Z,11.90
2022-11-05T06:19:53.058Z,11.90
2022-11-05T06:23:35.627Z,11.90
2022-11-05T06:27:17.292Z,11.90
2022-11-05T06:30:59.203Z,12.00
2022-11-05T06:34:40.861Z,12.00
2022-11-05T06:38:22.612Z,12.00
2022-11-05T06:42:17.985Z,12.00
2022-11-05T06:46:01.629Z,12.00
2022-11-05T06:49:43.309Z,12.00
2022-11-05T06:53:25.033Z,12.10
2022-11-05T06:57:09.564Z,12.10
2022-11-05T07:00:51.484Z,12.10
2022-11-05T07:04:33.470Z,12.10
2022-11-05T07:08:15.545Z,12.10
2022-11-05T07:11:57.421Z,12.10
2022-11-05T07:15:39.163Z,12.10
2022-11-05T07:19:21.146Z,12.10
2022-11-05T07:23:13.573Z,12.10
2022-11-05T07:26:55.506Z,12.10
2022-11-05T07:30:37.376Z,12.10
2022-11-05T07:34:19.111Z,12.10
2022-11-05T07:38:00.828Z,12.20
2022-11-05T07:41:42.557Z,12.20
2022-11-05T07:45:24.724Z,12.20
2022-11-05T07:49:06.408Z,12.30
2022-11-05T07:52:48.934Z,12.30
2022-11-05T07:56:30.605Z,12.40
2022-11-05T08:00:16.759Z,12.40
2022-11-05T08:04:17.271Z,12.50
2022-11-05T08:07:58.948Z,12.60
2022-11-05T08:11:41.912Z,12.60
2022-11-05T08:15:23.986Z,12.70
2022-11-05T08:19:05.749Z,12.70
2022-11-05T08:22:47.571Z,12.70
2022-11-05T08:26:29.293Z,12.70
2022-11-05T08:30:11.339Z,12.80
2022-11-05T08:33:57.128Z,12.80
2022-11-05T08:37:41.454Z,12.80
2022-11-05T08:41:24.372Z,12.90
2022-11-05T08:45:06.528Z,13.00
2022-11-05T08:48:48.249Z,13.10
2022-11-05T08:52:29.968Z,13.10
2022-11-05T08:56:11.645Z,13.20
2022-11-05T08:59:53.328Z,13.30
2022-11-05T09:03:35.127Z,13.30
2022-11-05T09:07:16.883Z,13.40
2022-11-05T09:10:58.682Z,13.40
2022-11-05T09:14:40.367Z,13.40
2022-11-05T09:18:22.102Z,13.50
2022-11-05T09:22:04.060Z,13.50
2022-11-05T09:25:45.806Z,13.60
2022-11-05T09:29:27.502Z,13.70
2022-11-05T09:33:09.690Z,13.70
2022-11-05T09:36:51.697Z,13.80
2022-11-05T09:40:40.193Z,13.80
2022-11-05T09:44:24.036Z,13.90
2022-11-05T09:48:10.406Z,14.00
2022-11-05T09:51:56.267Z,14.00
2022-11-05T09:55:39.933Z,14.00
2022-11-05T09:59:22.610Z,14.00
2022-11-05T10:03:06.856Z,14.00
2022-11-05T10:07:03.164Z,14.10
2022-11-05T10:11:12.829Z,14.10
2022-11-05T10:15:09.521Z,14.10
2022-11-05T10:18:58.889Z,14.20
2022-11-05T10:22:43.967Z,14.30
2022-11-05T10:26:29.957Z,14.30
2022-11-05T10:30:14.790Z,14.40
2022-11-05T10:34:01.036Z,14.40
2022-11-05T10:37:42.686Z,14.40
2022-11-05T10:41:39.584Z,14.40
2022-11-05T10:45:27.068Z,14.50
2022-11-05T10:49:42.997Z,14.60
2022-11-05T10:53:36.457Z,14.70
2022-11-05T10:57:36.283Z,14.80
2022-11-05T11:01:18.238Z,14.80
2022-11-05T11:05:00.059Z,14.90
2022-11-05T11:08:41.746Z,14.90
2022-11-05T11:12:30.321Z,15.00
2022-11-05T11:16:19.196Z,15.00
2022-11-05T11:20:28.403Z,15.00
2022-11-05T11:24:23.434Z,14.90
2022-11-05T11:28:05.618Z,14.90
2022-11-05T11:31:47.471Z,14.90
2022-11-05T11:35:29.352Z,14.90
2022-11-05T11:39:17.501Z,14.90
2022-11-05T11:43:05.033Z,14.80
2022-11-05T11:46:49.820Z,14.80
2022-11-05T11:50:31.468Z,14.80
2022-11-05T11:54:20.670Z,14.80
2022-11-05T11:58:06.644Z,14.80
2022-11-05T12:02:13.588Z,14.80
2022-11-05T12:06:03.089Z,14.80
2022-11-05T12:10:17.820Z,14.80
2022-11-05T12:14:09.350Z,14.80
2022-11-05T12:18:16.014Z,14.80
2022-11-05T12:21:57.750Z,14.80
2022-11-05T12:26:14.081Z,14.80
2022-11-05T12:30:16.157Z,14.80
2022-11-05T12:34:01.900Z,14.80
2022-11-05T12:37:59.021Z,14.80
2022-11-05T12:41:49.870Z,14.70
2022-11-05T12:45:34.661Z,14.70
2022-11-05T12:49:19.103Z,14.70
2022-11-05T12:53:37.390Z,14.70
2022-11-05T12:57:19.072Z,14.80
2022-11-05T13:01:23.456Z,14.80
2022-11-05T13:05:21.800Z,14.80
2022-11-05T13:09:10.665Z,14.80
2022-11-05T13:13:13.778Z,14.80
2022-11-05T13:17:18.617Z,14.80
2022-11-05T13:21:00.452Z,14.90
2022-11-05T13:24:55.224Z,14.80
2022-11-05T13:28:46.991Z,14.90
2022-11-05T13:32:31.681Z,14.90
2022-11-05T13:36:39.983Z,14.90
2022-11-05T13:40:25.544Z,14.90
2022-11-05T13:44:33.844Z,14.90
2022-11-05T13:48:35.903Z,14.90
2022-11-05T13:52:41.737Z,14.90
2022-11-05T13:56:34.079Z,14.90
2022-11-05T14:00:20.205Z,14.90
2022-11-05T14:04:03.172Z,14.90
2022-11-05T14:07:45.610Z,14.90
2022-11-05T14:11:36.268Z,14.90
2022-11-05T14:15:26.206Z,14.90
2022-11-05T14:19:20.174Z,14.90
2022-11-05T14:23:25.204Z,14.90
2022-11-05T14:27:06.940Z,15.00
2022-11-05T14:30:48.924Z,15.00
2022-11-05T14:34:42.521Z,15.00
2022-11-05T14:38:26.028Z,14.90
2022-11-05T14:42:27.963Z,15.00
2022-11-05T14:46:09.712Z,15.00
2022-11-05T14:50:19.081Z,15.00
2022-11-05T14:54:42.021Z,15.00
2022-11-05T14:58:26.832Z,15.00
2022-11-05T15:02:13.369Z,15.10
2022-11-05T15:06:22.788Z,15.10
2022-11-05T15:10:16.792Z,15.10
2022-11-05T15:14:24.528Z,15.10
2022-11-05T15:18:33.371Z,15.10
2022-11-05T15:22:38.267Z,15.20
2022-11-05T15:26:51.301Z,15.20
2022-11-05T15:30:33.059Z,15.20
2022-11-05T15:34:32.351Z,15.20
2022-11-05T15:38:56.568Z,15.20
2022-11-05T15:42:46.284Z,15.30
2022-11-05T15:46:28.453Z,15.30
2022-11-05T15:50:14.884Z,15.20
2022-11-05T15:58:06.325Z,15.30
2022-11-05T16:02:02.091Z,15.30
2022-11-05T16:05:45.022Z,15.40
2022-11-05T16:09:28.530Z,15.40
2022-11-05T16:13:38.088Z,15.40
2022-11-05T16:17:21.673Z,15.40
2022-11-05T16:21:18.561Z,15.40
2022-11-05T16:25:00.236Z,15.40
2022-11-05T16:28:41.908Z,15.40
2022-11-05T16:32:31.058Z,15.50
2022-11-05T16:36:13.194Z,15.50
2022-11-05T16:39:55.317Z,15.50
2022-11-05T16:43:37.108Z,15.50
2022-11-05T16:47:19.348Z,15.60
2022-11-05T16:51:02.245Z,15.60
2022-11-05T16:54:44.034Z,15.60
2022-11-05T16:58:26.005Z,15.60
2022-11-05T17:02:11.092Z,15.60
2022-11-05T17:05:52.814Z,15.60
2022-11-05T17:09:34.517Z,15.70
2022-11-05T17:13:18.260Z,15.70
2022-11-05T17:17:00.268Z,15.70
2022-11-05T17:20:52.982Z,15.70
2022-11-05T17:24:34.956Z,15.70
2022-11-05T17:28:17.136Z,15.70
2022-11-05T17:31:59.283Z,15.70
2022-11-05T17:35:41.551Z,15.70
2022-11-05T17:39:28.692Z,15.70
2022-11-05T17:43:13.695Z,15.70
2022-11-05T17:46:55.671Z,15.70
2022-11-05T17:50:44.295Z,15.70
2022-11-05T17:54:26.000Z,15.70
2022-11-05T17:58:07.665Z,15.70
2022-11-05T18:01:49.706Z,15.70
2022-11-05T18:05:31.484Z,15.70
2022-11-05T18:09:13.957Z,15.70
2022-11-05T18:12:56.969Z,15.70
2022-11-05T18:16:38.666Z,15.70
2022-11-05T18:20:20.485Z,15.70
2022-11-05T18:24:06.977Z,15.70
2022-11-05T18:27:48.650Z,15.70
2022-11-05T18:31:30.712Z,15.70
2022-11-05T18:35:13.489Z,15.60
2022-11-05T18:38:57.108Z,15.60
2022-11-05T18:42:39.147Z,15.60
2022-11-05T18:46:51.069Z,15.60
2022-11-05T18:50:22.496Z,15.60
2022-11-05T18:54:04.560Z,15.60
2022-11-05T18:57:46.227Z,15.60
2022-11-05T19:01:28.488Z,15.60
2022-11-05T19:09:12.475Z,15.60
2022-11-05T19:12:54.438Z,15.70
2022-11-05T19:16:36.848Z,15.60
2022-11-05T19:20:18.538Z,15.70
2022-11-05T19:24:01.772Z,15.70
2022-11-05T19:27:43.719Z,15.70
2022-11-05T19:31:25.720Z,15.70
2022-11-05T19:35:07.763Z,15.70
2022-11-05T19:38:53.252Z,15.70
2022-11-05T19:42:35.011Z,15.70
2022-11-05T19:46:18.534Z,15.70
2022-11-05T19:50:00.202Z,15.70
2022-11-05T19:53:42.208Z,15.70
2022-11-05T19:57:23.881Z,15.70
2022-11-05T20:01:06.833Z,15.70
2022-11-05T20:04:50.632Z,15.70
2022-11-05T20:08:32.592Z,15.70
2022-11-05T20:12:15.825Z,15.70
2022-11-05T20:15:57.673Z,15.70
2022-11-05T20:19:39.346Z,15.60
2022-11-05T20:23:21.323Z,15.60
2022-11-05T20:27:03.017Z,15.70
2022-11-05T20:30:44.867Z,15.70
2022-11-05T20:34:28.098Z,15.60
2022-11-05T20:38:10.170Z,15.60
2022-11-05T20:41:53.368Z,15.60
2022-11-05T20:45:35.060Z,15.60
2022-11-05T20:49:21.240Z,15.50
2022-11-05T20:53:05.912Z,15.50
2022-11-05T20:56:47.566Z,15.50
2022-11-05T21:00:29.234Z,15.50
2022-11-05T21:04:11.211Z,15.40
2022-11-05T21:07:53.094Z,15.40
2022-11-05T21:11:54.468Z,15.40
2022-11-05T21:15:36.207Z,15.40
2022-11-05T21:19:18.004Z,15.40
2022-11-05T21:23:00.074Z,15.40
2022-11-05T21:26:41.858Z,15.40
2022-11-05T21:30:23.714Z,15.40
2022-11-05T21:34:06.624Z,15.40
2022-11-05T21:37:48.360Z,15.40
2022-11-05T21:41:30.237Z,15.30
2022-11-05T21:45:11.912Z,15.30
2022-11-05T21:48:53.636Z,15.30
2022-11-05T21:52:54.334Z,15.30
2022-11-05T21:56:54.490Z,15.30
2022-11-05T22:00:36.136Z,15.30
2022-11-05T22:04:17.888Z,15.30
2022-11-05T22:07:59.822Z,15.30
2022-11-05T22:11:41.706Z,15.30
2022-11-05T22:15:23.405Z,15.30
2022-11-05T22:19:05.065Z,15.30
2022-11-05T22:22:48.060Z,15.20
2022-11-05T22:26:29.760Z,15.20
2022-11-05T22:30:12.168Z,15.20
2022-11-05T22:33:54.156Z,15.10
2022-11-05T22:37:35.819Z,15.10
2022-11-05T22:41:20.486Z,15.10
2022-11-05T22:45:02.165Z,15.00
2022-11-05T22:48:43.984Z,15.00
2022-11-05T22:52:26.820Z,14.90
2022-11-05T22:56:14.661Z,14.90
2022-11-05T22:59:56.328Z,14.80
2022-11-05T23:03:38.619Z,14.80
2022-11-05T23:07:38.941Z,14.80
2022-11-05T23:11:38.569Z,14.80
2022-11-05T23:15:40.480Z,14.80
2022-11-05T23:19:42.587Z,14.80
2022-11-05T23:23:42.723Z,14.80
2022-11-05T23:27:24.448Z,14.70
2022-11-05T23:31:27.467Z,14.80
2022-11-05T23:35:09.509Z,14.70
2022-11-05T23:38:51.191Z,14.70
2022-11-05T23:42:51.731Z,14.70
2022-11-05T23:46:51.792Z,14.70
2022-11-05T23:50:38.529Z,14.70
2022-11-05T23:54:22.459Z,14.70
2022-11-05T23:58:04.280Z,14.70
